createdAt,value
2022-11-09T00:00:48.891Z,4.38
2022-11-09T00:03:15.383Z,4.40
2022-11-09T00:05:42.411Z,4.41
2022-11-09T00:08:10.170Z,4.40
2022-11-09T00:10:37.226Z,4.43
2022-11-09T00:13:04.738Z,4.38
2022-11-09T00:15:31.046Z,4.42
2022-11-09T00:18:01.476Z,4.52
2022-11-09T00:20:28.637Z,4.54
2022-11-09T00:22:55.010Z,4.49
2022-11-09T00:25:21.331Z,4.46
2022-11-09T00:27:48.036Z,4.50
2022-11-09T00:30:14.349Z,4.52
2022-11-09T00:32:40.678Z,4.57
2022-11-09T00:35:07.755Z,4.61
2022-11-09T00:37:34.653Z,4.69
2022-11-09T00:40:00.978Z,4.77
2022-11-09T00:42:27.301Z,4.77
2022-11-09T00:44:53.636Z,4.76
2022-11-09T00:47:20.037Z,4.76
2022-11-09T00:49:46.349Z,4.71
2022-11-09T00:52:12.678Z,4.68
2022-11-09T00:54:38.990Z,4.72
2022-11-09T00:57:05.370Z,4.78
2022-11-09T00:59:32.022Z,4.71
2022-11-09T01:01:58.350Z,4.63
2022-11-09T01:04:24.670Z,4.64
2022-11-09T01:06:51.582Z,4.68
2022-11-09T01:09:17.922Z,4.66
2022-11-09T01:11:44.236Z,4.52
2022-11-09T01:14:11.164Z,4.64
2022-11-09T01:16:37.561Z,4.62
2022-11-09T01:19:03.913Z,4.63
2022-11-09T01:21:31.134Z,4.61
2022-11-09T01:23:58.337Z,4.64
2022-11-09T01:26:25.158Z,4.60
2022-11-09T01:28:51.901Z,4.57
2022-11-09T01:31:20.623Z,4.55
2022-11-09T01:33:47.649Z,4.55
2022-11-09T01:36:24.798Z,4.61
2022-11-09T01:38:51.201Z,4.68
2022-11-09T01:41:26.600Z,4.73
2022-11-09T01:44:03.149Z,4.82
2022-11-09T01:46:54.409Z,4.80
2022-11-09T01:49:43.181Z,4.90
2022-11-09T01:52:18.307Z,4.88
2022-11-09T01:54:51.492Z,4.82
2022-11-09T01:57:28.183Z,4.80
2022-11-09T02:00:02.382Z,4.82
2022-11-09T02:02:29.222Z,4.85
2022-11-09T02:05:01.114Z,4.83
2022-11-09T02:07:28.263Z,4.80
2022-11-09T02:10:36.289Z,4.80
2022-11-09T02:13:04.034Z,4.77
2022-11-09T02:15:30.446Z,4.71
2022-11-09T02:17:57.064Z,4.69
2022-11-09T02:20:25.682Z,4.81
2022-11-09T02:22:52.083Z,4.98
2022-11-09T02:25:18.656Z,5.09
2022-11-09T02:27:46.218Z,5.15
2022-11-09T02:30:14.799Z,5.10
2022-11-09T02:32:41.598Z,5.14
2022-11-09T02:35:09.508Z,5.14
2022-11-09T02:37:45.639Z,5.17
2022-11-09T02:40:17.888Z,5.17
2022-11-09T02:42:44.419Z,5.14
2022-11-09T02:45:11.263Z,5.11
2022-11-09T02:47:37.735Z,5.06
2022-11-09T02:50:04.493Z,5.04
2022-11-09T02:52:31.262Z,5.05
2022-11-09T02:54:57.656Z,4.99
2022-11-09T02:57:24.498Z,4.98
2022-11-09T02:59:50.974Z,5.02
2022-11-09T03:02:17.335Z,5.09
2022-11-09T03:04:44.161Z,5.24
2022-11-09T03:07:10.594Z,5.10
2022-11-09T03:09:37.006Z,5.01
2022-11-09T03:12:23.866Z,5.07
2022-11-09T03:14:50.204Z,4.91
2022-11-09T03:17:17.511Z,4.85
2022-11-09T03:19:45.196Z,4.84
2022-11-09T03:22:11.518Z,4.90
2022-11-09T03:24:37.944Z,5.07
2022-11-09T03:27:04.942Z,5.15
2022-11-09T03:29:31.250Z,5.23
2022-11-09T03:31:57.726Z,5.32
2022-11-09T03:34:24.432Z,5.47
2022-11-09T03:36:50.763Z,5.52
2022-11-09T03:39:17.489Z,5.61
2022-11-09T03:41:43.836Z,5.60
2022-11-09T03:44:10.162Z,5.63
2022-11-09T03:46:36.949Z,5.65
2022-11-09T03:49:04.118Z,5.65
2022-11-09T03:51:30.890Z,5.65
2022-11-09T03:53:57.311Z,5.70
2022-11-09T03:56:23.657Z,5.74
2022-11-09T03:58:50.338Z,5.81
2022-11-09T04:01:17.154Z,5.95
2022-11-09T04:03:43.984Z,6.07
2022-11-09T04:06:10.341Z,6.01
2022-11-09T04:08:36.686Z,5.95
2022-11-09T04:11:03.442Z,5.92
2022-11-09T04:13:29.768Z,5.79
2022-11-09T04:15:56.099Z,5.74
2022-11-09T04:18:23.077Z,5.67
2022-11-09T04:20:49.449Z,5.68
2022-11-09T04:23:15.813Z,5.60
2022-11-09T04:25:42.894Z,5.69
2022-11-09T04:28:11.773Z,5.69
2022-11-09T04:30:38.474Z,5.77
2022-11-09T04:33:05.623Z,5.79
2022-11-09T04:35:33.670Z,5.83
2022-11-09T04:38:08.766Z,5.77
2022-11-09T04:40:35.650Z,5.68
2022-11-09T04:43:06.906Z,5.72
2022-11-09T04:45:34.771Z,5.80
2022-11-09T04:48:03.427Z,5.86
2022-11-09T04:50:30.253Z,5.88
2022-11-09T04:53:14.272Z,6.13
2022-11-09T04:55:41.353Z,6.14
2022-11-09T04:58:08.301Z,6.16
2022-11-09T05:00:35.682Z,6.16
2022-11-09T05:03:03.627Z,6.24
2022-11-09T05:05:30.598Z,6.18
2022-11-09T05:07:57.330Z,6.18
2022-11-09T05:10:24.024Z,6.21
2022-11-09T05:12:50.379Z,6.04
2022-11-09T05:15:16.793Z,5.92
2022-11-09T05:17:43.606Z,5.93
2022-11-09T05:20:11.223Z,6.02
2022-11-09T05:22:58.730Z,6.20
2022-11-09T05:25:25.877Z,6.41
2022-11-09T05:27:52.706Z,6.46
2022-11-09T05:30:19.365Z,6.27
2022-11-09T05:32:46.185Z,6.04
2022-11-09T05:35:12.817Z,5.92
2022-11-09T05:37:39.923Z,5.88
2022-11-09T05:40:08.381Z,6.03
2022-11-09T05:42:37.901Z,6.07
2022-11-09T05:45:35.632Z,6.19
2022-11-09T05:47:51.333Z,6.06
2022-11-09T05:50:17.745Z,5.99
2022-11-09T05:52:44.117Z,5.95
2022-11-09T05:55:10.846Z,5.99
2022-11-09T05:57:37.187Z,6.10
2022-11-09T06:00:09.878Z,6.18
2022-11-09T06:02:37.765Z,6.26
2022-11-09T06:05:04.294Z,6.26
2022-11-09T06:07:30.601Z,6.36
2022-11-09T06:09:57.342Z,6.34
2022-11-09T06:12:24.170Z,6.35
2022-11-09T06:14:50.511Z,6.40
2022-11-09T06:17:17.178Z,6.35
2022-11-09T06:19:43.890Z,6.32
2022-11-09T06:22:10.520Z,6.31
2022-11-09T06:24:36.813Z,6.48
2022-11-09T06:27:03.852Z,6.51
2022-11-09T06:29:30.362Z,6.57
2022-11-09T06:31:56.785Z,6.66
2022-11-09T06:34:23.701Z,6.68
2022-11-09T06:36:50.514Z,6.80
2022-11-09T06:39:16.837Z,6.76
2022-11-09T06:41:47.434Z,6.76
2022-11-09T06:44:14.335Z,6.74
2022-11-09T06:46:40.728Z,6.71
2022-11-09T06:49:07.898Z,6.52
2022-11-09T06:51:34.206Z,6.50
2022-11-09T06:54:00.562Z,6.58
2022-11-09T06:56:27.421Z,6.68
2022-11-09T06:58:53.791Z,6.77
2022-11-09T07:01:29.384Z,6.84
2022-11-09T07:03:55.997Z,6.69
2022-11-09T07:06:22.687Z,6.61
2022-11-09T07:08:49.565Z,6.64
2022-11-09T07:11:16.219Z,6.68
2022-11-09T07:13:43.826Z,6.74
2022-11-09T07:16:12.710Z,6.93
2022-11-09T07:18:39.342Z,7.00
2022-11-09T07:21:10.103Z,7.09
2022-11-09T07:23:40.664Z,6.88
2022-11-09T07:26:07.426Z,6.91
2022-11-09T07:28:34.282Z,6.96
2022-11-09T07:31:00.919Z,7.13
2022-11-09T07:33:30.210Z,7.42
2022-11-09T07:35:58.514Z,7.52
2022-11-09T07:38:25.179Z,7.13
2022-11-09T07:40:51.522Z,6.99
2022-11-09T07:43:18.782Z,6.92
2022-11-09T07:45:45.825Z,6.92
2022-11-09T07:48:12.840Z,6.94
2022-11-09T07:50:40.696Z,6.93
2022-11-09T07:53:08.353Z,6.96
2022-11-09T07:55:35.371Z,6.90
2022-11-09T07:58:07.526Z,6.84
2022-11-09T08:00:36.457Z,6.96
2022-11-09T08:03:03.729Z,6.94
2022-11-09T08:05:30.605Z,6.96
2022-11-09T08:07:58.834Z,6.95
2022-11-09T08:10:26.869Z,6.97
2022-11-09T08:12:58.847Z,7.04
2022-11-09T08:15:25.526Z,7.11
2022-11-09T08:17:52.300Z,7.16
2022-11-09T08:20:20.445Z,7.10
2022-11-09T08:22:47.392Z,7.14
2022-11-09T08:25:14.802Z,7.16
2022-11-09T08:27:41.681Z,7.20
2022-11-09T08:30:12.445Z,7.27
2022-11-09T08:32:39.084Z,7.34
2022-11-09T08:35:06.611Z,7.38
2022-11-09T08:37:39.284Z,7.55
2022-11-09T08:40:07.374Z,7.63
2022-11-09T08:42:33.740Z,7.63
2022-11-09T08:45:00.132Z,7.95
2022-11-09T08:47:27.112Z,7.95
2022-11-09T08:49:53.508Z,8.15
2022-11-09T08:52:20.014Z,8.28
2022-11-09T08:54:46.841Z,8.33
2022-11-09T08:57:13.284Z,8.48
2022-11-09T08:59:39.684Z,8.49
2022-11-09T09:02:06.405Z,8.39
2022-11-09T09:04:32.788Z,8.48
2022-11-09T09:07:00.199Z,8.48
2022-11-09T09:09:27.608Z,8.54
2022-11-09T09:11:54.238Z,8.73
2022-11-09T09:14:20.702Z,8.93
2022-11-09T09:16:47.447Z,8.96
2022-11-09T09:19:13.797Z,9.19
2022-11-09T09:21:40.242Z,9.30
2022-11-09T09:24:07.146Z,9.37
2022-11-09T09:26:33.706Z,9.43
2022-11-09T09:29:00.025Z,9.53
2022-11-09T09:31:27.345Z,9.91
2022-11-09T09:33:53.756Z,9.88
2022-11-09T09:36:22.305Z,9.88
2022-11-09T09:38:53.571Z,9.93
2022-11-09T09:41:27.150Z,10.10
2022-11-09T09:43:59.092Z,10.10
2022-11-09T09:46:36.637Z,10.28
2022-11-09T09:49:17.447Z,10.52
2022-11-09T09:52:06.348Z,10.34
2022-11-09T09:54:42.182Z,10.18
2022-11-09T09:57:18.050Z,10.27
2022-11-09T09:59:49.932Z,10.39
2022-11-09T10:02:26.317Z,10.32
2022-11-09T10:04:56.998Z,10.42
2022-11-09T10:07:30.010Z,10.10
2022-11-09T10:10:24.308Z,10.16
2022-11-09T10:13:05.725Z,10.12
2022-11-09T10:15:54.162Z,10.17
2022-11-09T10:18:35.529Z,10.61
2022-11-09T10:21:34.096Z,10.73
2022-11-09T10:24:27.440Z,10.89
2022-11-09T10:26:59.010Z,11.61
2022-11-09T10:29:45.456Z,11.43
2022-11-09T10:32:20.285Z,11.55
2022-11-09T10:35:20.779Z,11.49
2022-11-09T10:37:52.596Z,11.60
2022-11-09T10:40:31.893Z,11.81
2022-11-09T10:43:06.324Z,11.95
2022-11-09T10:45:35.531Z,12.00
2022-11-09T10:48:03.189Z,12.22
2022-11-09T10:50:41.772Z,12.24
2022-11-09T10:53:15.858Z,12.33
2022-11-09T10:55:57.680Z,12.62
2022-11-09T10:58:37.579Z,12.77
2022-11-09T11:01:18.239Z,12.78
2022-11-09T11:03:48.541Z,12.68
2022-11-09T11:06:18.058Z,12.59
2022-11-09T11:08:57.772Z,12.60
2022-11-09T11:11:36.440Z,12.80
2022-11-09T11:14:11.597Z,12.77
2022-11-09T11:16:39.146Z,12.87
2022-11-09T11:19:05.788Z,12.81
2022-11-09T11:21:32.560Z,12.55
2022-11-09T11:24:12.839Z,12.46
2022-11-09T11:26:50.517Z,12.69
2022-11-09T11:29:46.969Z,12.57
2022-11-09T11:32:18.654Z,12.53
2022-11-09T11:37:44.047Z,12.60
2022-11-09T11:40:20.357Z,12.65
2022-11-09T11:43:06.517Z,12.68
2022-11-09T11:45:42.382Z,12.75
2022-11-09T11:48:31.225Z,12.75
2022-11-09T11:51:04.126Z,12.71
2022-11-09T11:53:30.442Z,12.78
2022-11-09T11:56:20.323Z,12.82
2022-11-09T11:59:05.221Z,12.80
2022-11-09T12:01:58.499Z,12.79
2022-11-09T12:04:33.626Z,12.82
2022-11-09T12:07:22.967Z,13.03
2022-11-09T12:10:11.886Z,13.25
2022-11-09T12:12:41.928Z,13.25
2022-11-09T12:15:11.425Z,13.36
2022-11-09T12:18:21.824Z,13.16
2022-11-09T12:21:14.307Z,13.28
2022-11-09T12:24:03.882Z,13.31
2022-11-09T12:27:04.660Z,13.21
2022-11-09T12:29:46.134Z,13.21
2022-11-09T12:32:15.389Z,13.10
2022-11-09T12:34:54.059Z,13.00
2022-11-09T12:37:26.548Z,13.04
2022-11-09T12:39:54.873Z,12.99
2022-11-09T12:42:41.818Z,13.09
2022-11-09T12:45:37.842Z,13.25
2022-11-09T12:48:29.680Z,13.45
2022-11-09T12:50:57.808Z,13.43
2022-11-09T12:53:33.068Z,13.57
2022-11-09T12:56:17.753Z,13.60
2022-11-09T12:58:44.966Z,13.48
2022-11-09T13:01:14.499Z,13.56
2022-11-09T13:03:54.621Z,13.53
2022-11-09T13:06:23.930Z,13.51
2022-11-09T13:09:05.841Z,13.51
2022-11-09T13:11:39.782Z,13.46
2022-11-09T13:14:31.842Z,13.56
2022-11-09T13:17:01.077Z,13.51
2022-11-09T13:19:37.753Z,13.46
2022-11-09T13:22:13.611Z,13.53
2022-11-09T13:24:59.999Z,13.68
2022-11-09T13:27:32.827Z,13.61
2022-11-09T13:30:00.678Z,14.02
2022-11-09T13:32:33.294Z,14.13
2022-11-09T13:35:01.554Z,13.95
2022-11-09T13:37:43.376Z,14.01
2022-11-09T13:40:31.768Z,13.70
2022-11-09T13:43:10.863Z,13.96
2022-11-09T13:45:44.185Z,14.06
2022-11-09T13:48:39.160Z,13.95
2022-11-09T13:51:16.622Z,14.12
2022-11-09T13:54:00.785Z,14.05
2022-11-09T13:56:32.521Z,14.13
2022-11-09T13:59:20.993Z,14.01
2022-11-09T14:01:51.929Z,13.79
2022-11-09T14:04:28.077Z,13.70
2022-11-09T14:07:19.927Z,13.44
2022-11-09T14:10:04.859Z,13.33
2022-11-09T14:12:47.530Z,13.20
2022-11-09T14:15:39.156Z,13.07
2022-11-09T14:18:14.891Z,13.06
2022-11-09T14:20:51.066Z,12.96
2022-11-09T14:23:22.854Z,12.88
2022-11-09T14:25:49.261Z,12.82
2022-11-09T14:28:29.881Z,12.87
2022-11-09T14:30:57.042Z,12.94
2022-11-09T14:33:30.145Z,12.69
2022-11-09T14:35:59.421Z,12.69
2022-11-09T14:38:31.222Z,12.62
2022-11-09T14:40:57.607Z,12.52
2022-11-09T14:43:29.043Z,12.55
2022-11-09T14:46:00.407Z,12.57
2022-11-09T14:48:28.910Z,12.51
2022-11-09T14:50:57.438Z,12.61
2022-11-09T14:53:36.809Z,12.41
2022-11-09T14:56:05.787Z,12.33
2022-11-09T14:58:36.164Z,12.29
2022-11-09T15:01:24.074Z,12.20
2022-11-09T15:04:07.837Z,12.18
2022-11-09T15:06:35.241Z,12.03
2022-11-09T15:09:14.254Z,12.02
2022-11-09T15:11:41.823Z,11.96
2022-11-09T15:14:42.800Z,11.94
2022-11-09T15:17:18.206Z,11.77
2022-11-09T15:19:56.823Z,11.71
2022-11-09T15:22:53.353Z,11.53
2022-11-09T15:25:46.681Z,11.43
2022-11-09T15:28:12.992Z,11.31
2022-11-09T15:30:46.826Z,11.16
2022-11-09T15:33:24.262Z,11.11
2022-11-09T15:35:58.678Z,11.01
2022-11-09T15:38:35.096Z,10.96
2022-11-09T15:41:02.078Z,10.91
2022-11-09T15:43:29.211Z,10.84
2022-11-09T15:45:56.443Z,10.76
2022-11-09T15:48:23.322Z,10.64
2022-11-09T15:50:49.966Z,10.58
2022-11-09T15:53:16.334Z,10.49
2022-11-09T15:55:42.794Z,10.50
2022-11-09T15:58:14.193Z,10.44
2022-11-09T16:00:41.335Z,10.48
2022-11-09T16:03:08.146Z,10.56
2022-11-09T16:05:34.545Z,10.51
2022-11-09T16:08:01.301Z,10.49
2022-11-09T16:10:30.082Z,10.50
2022-11-09T16:12:57.437Z,10.59
2022-11-09T16:15:24.521Z,10.54
2022-11-09T16:17:51.180Z,10.64
2022-11-09T16:20:19.058Z,10.47
2022-11-09T16:22:46.209Z,10.34
2022-11-09T16:25:13.018Z,10.35
2022-11-09T16:27:50.006Z,10.31
2022-11-09T16:30:17.242Z,10.27
2022-11-09T16:32:43.935Z,10.27
2022-11-09T16:35:27.728Z,10.30
2022-11-09T16:37:56.398Z,10.32
2022-11-09T16:40:23.084Z,10.28
2022-11-09T16:42:51.615Z,10.28
2022-11-09T16:45:19.996Z,10.23
2022-11-09T16:47:50.654Z,10.26
2022-11-09T16:50:17.055Z,10.25
2022-11-09T16:52:43.387Z,10.36
2022-11-09T16:55:10.374Z,10.37
2022-11-09T16:57:37.626Z,10.53
2022-11-09T17:00:06.128Z,10.47
2022-11-09T17:02:32.947Z,10.39
2022-11-09T17:05:00.101Z,10.28
2022-11-09T17:07:26.664Z,10.29
2022-11-09T17:09:53.097Z,10.35
2022-11-09T17:12:19.840Z,10.32
2022-11-09T17:14:46.164Z,10.31
2022-11-09T17:17:12.639Z,10.26
2022-11-09T17:19:39.365Z,10.14
2022-11-09T17:22:05.749Z,10.13
2022-11-09T17:24:33.043Z,10.13
2022-11-09T17:27:00.281Z,10.12
2022-11-09T17:29:27.945Z,10.08
2022-11-09T17:31:54.423Z,10.09
2022-11-09T17:34:20.737Z,10.07
2022-11-09T17:37:03.580Z,10.16
2022-11-09T17:39:31.322Z,10.21
2022-11-09T17:41:58.065Z,10.20
2022-11-09T17:44:24.492Z,10.22
2022-11-09T17:46:51.254Z,10.19
2022-11-09T17:49:17.616Z,10.19
2022-11-09T17:51:44.033Z,10.18
2022-11-09T17:54:11.109Z,10.13
2022-11-09T17:56:37.480Z,10.09
2022-11-09T17:59:05.283Z,10.11
2022-11-09T18:01:37.969Z,10.10
2022-11-09T18:04:06.835Z,10.06
2022-11-09T18:06:34.181Z,10.05
2022-11-09T18:09:34.242Z,10.05
2022-11-09T18:11:48.195Z,9.96
2022-11-09T18:14:15.806Z,10.02
2022-11-09T18:16:42.326Z,9.96
2022-11-09T18:19:09.369Z,9.94
2022-11-09T18:21:35.706Z,9.91
2022-11-09T18:24:02.020Z,9.92
2022-11-09T18:26:28.830Z,9.92
2022-11-09T18:28:56.844Z,9.91
2022-11-09T18:31:23.510Z,9.89
2022-11-09T18:33:50.371Z,9.86
2022-11-09T18:36:19.614Z,9.79
2022-11-09T18:38:46.329Z,9.78
2022-11-09T18:41:18.428Z,9.73
2022-11-09T18:43:45.308Z,9.75
2022-11-09T18:46:13.826Z,9.79
2022-11-09T18:48:40.563Z,9.78
2022-11-09T18:51:08.772Z,9.78
2022-11-09T18:53:43.873Z,9.79
2022-11-09T18:56:21.505Z,9.83
2022-11-09T18:58:49.339Z,9.88
2022-11-09T19:01:16.717Z,9.83
2022-11-09T19:03:43.103Z,9.84
2022-11-09T19:06:13.579Z,9.91
2022-11-09T19:08:58.454Z,9.90
2022-11-09T19:11:25.818Z,9.83
2022-11-09T19:13:52.611Z,9.85
2022-11-09T19:16:19.030Z,9.78
2022-11-09T19:18:46.184Z,9.81
2022-11-09T19:21:24.805Z,9.80
2022-11-09T19:23:52.358Z,9.83
2022-11-09T19:26:18.850Z,9.73
2022-11-09T19:28:45.585Z,9.74
2022-11-09T19:31:14.743Z,9.72
2022-11-09T19:33:41.398Z,9.68
2022-11-09T19:36:29.294Z,9.51
2022-11-09T19:38:57.124Z,9.42
2022-11-09T19:41:24.628Z,9.38
2022-11-09T19:43:52.452Z,9.36
2022-11-09T19:46:19.156Z,9.34
2022-11-09T19:48:46.739Z,9.35
2022-11-09T19:51:14.508Z,9.40
2022-11-09T19:53:42.747Z,9.38
2022-11-09T19:56:09.535Z,9.39
2022-11-09T19:58:36.149Z,9.40
2022-11-09T20:01:09.398Z,9.39
2022-11-09T20:03:36.497Z,9.39
2022-11-09T20:06:04.894Z,9.37
2022-11-09T20:08:36.194Z,9.33
2022-11-09T20:11:10.647Z,9.34
2022-11-09T20:13:39.285Z,9.35
2022-11-09T20:16:07.905Z,9.33
2022-11-09T20:18:38.761Z,9.32
2022-11-09T20:21:06.764Z,9.32
2022-11-09T20:23:33.370Z,9.32
2022-11-09T20:26:07.066Z,9.33
2022-11-09T20:28:34.159Z,9.32
2022-11-09T20:31:00.757Z,9.30
2022-11-09T20:33:27.579Z,9.30
2022-11-09T20:35:55.258Z,9.26
2022-11-09T20:38:23.057Z,9.31
2022-11-09T20:41:04.602Z,9.27
2022-11-09T20:43:31.328Z,9.24
2022-11-09T20:46:04.027Z,9.24
2022-11-09T20:48:52.635Z,9.21
2022-11-09T20:51:19.250Z,9.20
2022-11-09T20:53:48.894Z,9.22
2022-11-09T20:56:15.921Z,9.23
2022-11-09T20:58:42.323Z,9.22
2022-11-09T21:01:16.733Z,9.30
2022-11-09T21:03:45.331Z,9.27
2022-11-09T21:06:13.510Z,9.28
2022-11-09T21:08:40.190Z,9.29
2022-11-09T21:11:08.561Z,9.29
2022-11-09T21:13:34.914Z,9.29
2022-11-09T21:16:08.689Z,9.27
2022-11-09T21:18:35.293Z,9.32
2022-11-09T21:21:10.967Z,9.28
2022-11-09T21:23:57.290Z,9.35
2022-11-09T21:26:43.635Z,9.28
2022-11-09T21:29:31.370Z,9.22
2022-11-09T21:31:58.571Z,9.19
2022-11-09T21:34:25.414Z,9.17
2022-11-09T21:36:51.768Z,9.21
2022-11-09T21:39:20.000Z,9.17
2022-11-09T21:41:46.959Z,9.14
2022-11-09T21:44:13.919Z,9.15
2022-11-09T21:46:42.313Z,9.15
2022-11-09T21:49:10.690Z,9.16
2022-11-09T21:51:38.168Z,9.17
2022-11-09T21:54:06.595Z,9.17
2022-11-09T21:56:33.335Z,9.17
2022-11-09T21:58:59.855Z,9.16
2022-11-09T22:01:26.786Z,9.19
2022-11-09T22:03:53.511Z,9.14
2022-11-09T22:06:20.160Z,9.17
2022-11-09T22:08:47.782Z,9.17
2022-11-09T22:11:19.396Z,9.16
2022-11-09T22:14:04.773Z,9.14
2022-11-09T22:16:33.246Z,9.16
2022-11-09T22:19:21.298Z,9.16
2022-11-09T22:21:47.676Z,9.20
2022-11-09T22:24:14.071Z,9.19
2022-11-09T22:26:41.093Z,9.16
2022-11-09T22:29:07.458Z,9.24
2022-11-09T22:31:33.778Z,9.24
2022-11-09T22:34:00.861Z,9.18
2022-11-09T22:36:27.206Z,9.17
2022-11-09T22:38:53.601Z,9.17
2022-11-09T22:41:20.320Z,9.17
2022-11-09T22:43:47.039Z,9.14
2022-11-09T22:46:15.635Z,9.11
2022-11-09T22:48:43.653Z,9.09
2022-11-09T22:51:13.151Z,9.08
2022-11-09T22:53:40.089Z,9.09
2022-11-09T22:56:07.488Z,9.06
2022-11-09T22:58:34.206Z,9.08
2022-11-09T23:01:07.089Z,9.07
2022-11-09T23:03:35.552Z,9.08
2022-11-09T23:06:16.827Z,9.12
2022-11-09T23:08:43.746Z,9.14
2022-11-09T23:11:12.262Z,9.15
2022-11-09T23:13:38.601Z,9.16
2022-11-09T23:16:08.386Z,9.16
2022-11-09T23:18:54.133Z,9.18
2022-11-09T23:21:28.615Z,9.21
2022-11-09T23:23:57.679Z,9.17
2022-11-09T23:26:24.990Z,9.16
2022-11-09T23:28:52.212Z,9.18
2022-11-09T23:31:23.911Z,9.21
2022-11-09T23:33:52.813Z,9.24
2022-11-09T23:36:19.433Z,9.28
2022-11-09T23:38:45.928Z,9.40
2022-11-09T23:41:13.529Z,9.39
2022-11-09T23:43:43.891Z,9.45
2022-11-09T23:46:14.498Z,9.47
2022-11-09T23:48:41.918Z,9.24
2022-11-09T23:51:08.809Z,9.39
2022-11-09T23:53:36.329Z,9.21
2022-11-09T23:56:06.586Z,9.20
2022-11-09T23:58:33.751Z,9.16
